createdAt,value
2017-07-12T00:01:14.500Z,89.80
2017-07-12T00:03:43.126Z,90.00
2017-07-12T00:06:12.281Z,89.90
2017-07-12T00:08:40.669Z,89.90
2017-07-12T00:11:09.077Z,90.20
2017-07-12T00:13:38.253Z,90.90
2017-07-12T00:16:06.513Z,90.90
2017-07-12T00:18:34.930Z,91.30
2017-07-12T00:21:04.065Z,91.10
2017-07-12T00:23:32.459Z,91.10
2017-07-12T00:26:00.834Z,90.80
2017-07-12T00:28:29.286Z,90.90
2017-07-12T00:30:57.673Z,90.40
2017-07-12T00:33:26.077Z,89.50
2017-07-12T00:35:54.482Z,88.40
2017-07-12T00:38:23.622Z,86.20
2017-07-12T00:40:52.057Z,86.20
2017-07-12T00:43:21.198Z,84.40
2017-07-12T00:45:49.585Z,84.40
2017-07-12T00:48:17.983Z,84.20
2017-07-12T00:50:46.377Z,83.80
2017-07-12T00:53:14.919Z,83.60
2017-07-12T00:55:43.324Z,83.40
2017-07-12T00:58:11.725Z,83.60
2017-07-12T01:00:40.163Z,82.90
2017-07-12T01:03:08.549Z,83.40
2017-07-12T01:05:37.007Z,83.00
2017-07-12T01:08:05.390Z,83.40
2017-07-12T01:10:33.772Z,82.60
2017-07-12T01:13:02.166Z,82.20
2017-07-12T01:15:30.594Z,81.40
2017-07-12T01:17:59.034Z,80.70
2017-07-12T01:20:27.419Z,80.60
2017-07-12T01:22:55.823Z,82.70
2017-07-12T01:25:24.980Z,81.70
2017-07-12T01:27:53.371Z,81.60
2017-07-12T01:30:21.805Z,81.40
2017-07-12T01:32:50.173Z,81.80
2017-07-12T01:35:18.563Z,82.40
2017-07-12T01:37:46.968Z,83.00
2017-07-12T01:40:15.345Z,83.40
2017-07-12T01:42:43.446Z,83.80
2017-07-12T01:45:11.820Z,84.10
2017-07-12T01:47:40.960Z,85.70
2017-07-12T01:50:09.348Z,85.00
2017-07-12T01:52:37.726Z,85.50
2017-07-12T01:55:06.156Z,86.20
2017-07-12T01:57:35.299Z,87.20
2017-07-12T02:00:03.669Z,87.20
2017-07-12T02:02:32.084Z,87.80
2017-07-12T02:05:00.493Z,88.10
2017-07-12T02:07:30.462Z,88.60
2017-07-12T02:09:58.842Z,88.60
2017-07-12T02:12:27.223Z,88.40
2017-07-12T02:14:55.611Z,88.40
2017-07-12T02:17:24.001Z,89.40
2017-07-12T02:19:52.598Z,90.30
2017-07-12T02:22:21.755Z,91.20
2017-07-12T02:24:50.122Z,91.20
2017-07-12T02:27:18.526Z,91.50
2017-07-12T02:29:46.917Z,91.40
2017-07-12T02:32:15.419Z,91.70
2017-07-12T02:34:44.578Z,92.50
2017-07-12T02:37:12.998Z,92.40
2017-07-12T02:39:41.407Z,92.40
2017-07-12T02:42:09.796Z,92.70
2017-07-12T02:44:38.225Z,92.80
2017-07-12T02:47:07.369Z,93.40
2017-07-12T02:49:35.753Z,93.40
2017-07-12T02:52:04.143Z,93.90
2017-07-12T02:54:33.305Z,93.60
2017-07-12T02:57:01.888Z,93.60
2017-07-12T02:59:30.276Z,94.00
2017-07-12T03:01:58.663Z,94.30
2017-07-12T03:04:27.054Z,94.20
2017-07-12T03:06:55.426Z,94.50
2017-07-12T03:09:24.056Z,94.70
2017-07-12T03:11:53.205Z,95.30
2017-07-12T03:14:21.597Z,95.30
2017-07-12T03:16:49.990Z,95.50
2017-07-12T03:19:18.365Z,95.80
2017-07-12T03:21:47.163Z,96.20
2017-07-12T03:24:15.555Z,96.30
2017-07-12T03:26:43.926Z,96.90
2017-07-12T03:29:12.573Z,97.00
2017-07-12T03:31:40.957Z,97.30
2017-07-12T03:34:09.364Z,97.70
2017-07-12T03:36:37.762Z,97.60
2017-07-12T03:39:06.159Z,97.70
2017-07-12T03:41:34.577Z,97.70
2017-07-12T03:44:02.979Z,98.00
2017-07-12T03:46:32.192Z,97.90
2017-07-12T03:49:00.692Z,97.90
2017-07-12T03:51:29.077Z,98.10
2017-07-12T03:53:57.480Z,98.50
2017-07-12T03:56:25.856Z,98.80
2017-07-12T03:58:54.270Z,98.70
2017-07-12T04:01:23.445Z,98.90
2017-07-12T04:03:51.834Z,98.90
2017-07-12T04:06:21.004Z,98.90
2017-07-12T04:08:49.394Z,98.90
2017-07-12T04:11:18.007Z,99.10
2017-07-12T04:13:46.395Z,99.40
2017-07-12T04:16:14.768Z,99.40
2017-07-12T04:18:43.173Z,99.60
2017-07-12T04:21:11.564Z,99.60
2017-07-12T04:23:40.005Z,99.60
2017-07-12T04:26:08.394Z,99.70
2017-07-12T04:28:36.802Z,99.30
2017-07-12T04:31:05.224Z,99.40
2017-07-12T04:33:34.421Z,99.90
2017-07-12T04:36:03.828Z,99.90
2017-07-12T04:38:32.978Z,99.90
2017-07-12T04:41:01.371Z,99.90
2017-07-12T04:43:29.775Z,99.90
2017-07-12T04:45:58.939Z,99.90
2017-07-12T04:48:27.678Z,99.90
2017-07-12T04:50:56.068Z,99.90
2017-07-12T04:53:24.453Z,99.90
2017-07-12T04:55:52.662Z,99.90
2017-07-12T04:58:21.070Z,99.90
2017-07-12T05:00:50.467Z,99.90
2017-07-12T05:03:19.621Z,99.70
2017-07-12T05:05:48.004Z,99.60
2017-07-12T05:08:16.425Z,99.90
2017-07-12T05:10:45.583Z,99.90
2017-07-12T05:13:14.162Z,99.90
2017-07-12T05:15:42.541Z,99.90
2017-07-12T05:18:11.015Z,99.90
2017-07-12T05:20:39.419Z,99.90
2017-07-12T05:23:07.799Z,99.90
2017-07-12T05:25:36.242Z,99.90
2017-07-12T05:28:04.662Z,99.90
2017-07-12T05:30:33.819Z,99.90
2017-07-12T05:33:02.209Z,99.90
2017-07-12T05:35:30.593Z,99.90
2017-07-12T05:37:59.034Z,99.90
2017-07-12T05:40:27.442Z,99.90
2017-07-12T05:42:55.856Z,99.90
2017-07-12T05:45:24.517Z,99.90
2017-07-12T05:47:52.916Z,99.90
2017-07-12T05:50:22.905Z,99.90
2017-07-12T05:52:51.279Z,99.90
2017-07-12T05:55:19.796Z,99.90
2017-07-12T05:57:48.963Z,99.90
2017-07-12T06:00:17.375Z,99.90
2017-07-12T06:02:46.132Z,99.90
2017-07-12T06:05:14.526Z,99.90
2017-07-12T06:07:42.900Z,99.90
2017-07-12T06:10:11.302Z,99.90
2017-07-12T06:12:40.467Z,99.90
2017-07-12T06:15:08.922Z,99.90
2017-07-12T06:17:37.341Z,99.90
2017-07-12T06:20:05.867Z,99.90
2017-07-12T06:22:34.284Z,99.90
2017-07-12T06:25:02.670Z,99.90
2017-07-12T06:27:31.256Z,99.90
2017-07-12T06:29:59.675Z,99.90
2017-07-12T06:32:28.056Z,99.90
2017-07-12T06:34:56.465Z,99.90
2017-07-12T06:37:24.879Z,99.90
2017-07-12T06:39:54.243Z,99.90
2017-07-12T06:42:22.622Z,99.90
2017-07-12T06:44:50.661Z,99.90
2017-07-12T06:47:19.100Z,99.90
2017-07-12T06:49:48.256Z,99.90
2017-07-12T06:52:16.665Z,99.90
2017-07-12T06:54:45.050Z,99.90
2017-07-12T06:57:14.207Z,99.90
2017-07-12T06:59:42.634Z,99.90
2017-07-12T07:02:11.016Z,99.90
2017-07-12T07:04:40.327Z,99.90
2017-07-12T07:07:08.708Z,99.90
2017-07-12T07:09:37.109Z,99.90
2017-07-12T07:12:05.500Z,99.90
2017-07-12T07:14:33.932Z,99.90
2017-07-12T07:17:03.192Z,99.90
2017-07-12T07:19:31.566Z,99.90
2017-07-12T07:21:59.961Z,99.90
2017-07-12T07:24:28.366Z,99.90
2017-07-12T07:26:57.518Z,99.90
2017-07-12T07:29:25.942Z,99.90
2017-07-12T07:31:54.327Z,99.90
2017-07-12T07:34:22.768Z,99.90
2017-07-12T07:36:51.210Z,99.90
2017-07-12T07:39:19.600Z,99.90
2017-07-12T07:41:48.044Z,99.90
2017-07-12T07:44:16.547Z,99.90
2017-07-12T07:46:44.931Z,99.90
2017-07-12T07:49:13.401Z,99.90
2017-07-12T07:51:41.785Z,99.90
2017-07-12T07:54:10.219Z,99.90
2017-07-12T07:56:39.373Z,99.90
2017-07-12T07:59:07.748Z,99.90
2017-07-12T08:01:36.147Z,99.90
2017-07-12T08:04:04.541Z,99.90
2017-07-12T08:06:33.998Z,99.90
2017-07-12T08:09:02.402Z,99.90
2017-07-12T08:11:30.791Z,99.90
2017-07-12T08:13:59.200Z,99.90
2017-07-12T08:16:28.356Z,99.90
2017-07-12T08:18:56.773Z,99.90
2017-07-12T08:21:25.928Z,99.90
2017-07-12T08:23:54.318Z,99.90
2017-07-12T08:26:22.725Z,99.90
2017-07-12T08:28:51.877Z,99.90
2017-07-12T08:31:20.511Z,99.90
2017-07-12T08:33:49.663Z,99.90
2017-07-12T08:36:17.721Z,99.90
2017-07-12T08:38:46.111Z,99.90
2017-07-12T08:41:14.499Z,99.90
2017-07-12T08:43:42.888Z,99.90
2017-07-12T08:46:11.293Z,99.90
2017-07-12T08:48:39.678Z,99.90
2017-07-12T08:51:08.086Z,99.90
2017-07-12T08:53:36.480Z,99.90
2017-07-12T08:56:04.874Z,99.90
2017-07-12T08:58:33.285Z,99.90
2017-07-12T09:01:01.773Z,99.90
2017-07-12T09:03:30.179Z,99.90
2017-07-12T09:05:58.813Z,99.90
2017-07-12T09:08:27.231Z,99.90
2017-07-12T09:10:55.615Z,99.90
2017-07-12T09:13:24.069Z,99.90
2017-07-12T09:15:52.573Z,99.90
2017-07-12T09:18:20.953Z,99.90
2017-07-12T09:20:49.358Z,99.90
2017-07-12T09:23:17.745Z,99.90
2017-07-12T09:33:13.099Z,99.90
2017-07-12T09:35:41.517Z,99.90
2017-07-12T09:38:09.920Z,99.90
2017-07-12T09:40:38.124Z,99.90
2017-07-12T09:43:06.527Z,99.90
2017-07-12T09:45:35.689Z,99.90
2017-07-12T09:48:04.194Z,99.90
2017-07-12T09:50:33.373Z,99.90
2017-07-12T09:53:01.757Z,99.90
2017-07-12T09:55:30.362Z,99.90
2017-07-12T09:57:59.511Z,99.90
2017-07-12T10:00:27.924Z,99.90
2017-07-12T10:02:56.327Z,99.90
2017-07-12T10:05:25.474Z,99.90
2017-07-12T10:07:53.858Z,99.90
2017-07-12T10:10:22.245Z,99.90
2017-07-12T10:12:50.633Z,99.90
2017-07-12T10:15:19.015Z,99.90
2017-07-12T10:17:48.679Z,99.90
2017-07-12T10:20:17.070Z,99.90
2017-07-12T10:22:45.454Z,99.90
2017-07-12T10:25:13.848Z,99.90
2017-07-12T10:27:42.217Z,99.90
2017-07-12T10:30:10.613Z,99.90
2017-07-12T10:32:39.221Z,99.90
2017-07-12T10:35:07.619Z,99.90
2017-07-12T10:37:36.024Z,99.90
2017-07-12T10:40:04.436Z,99.90
2017-07-12T10:42:33.596Z,99.90
2017-07-12T10:45:02.002Z,99.90
2017-07-12T10:47:30.371Z,99.90
2017-07-12T10:49:58.797Z,99.90
2017-07-12T10:52:27.277Z,99.90
2017-07-12T10:54:55.671Z,99.90
2017-07-12T10:57:24.349Z,99.90
2017-07-12T10:59:52.740Z,99.90
2017-07-12T11:02:21.132Z,99.90
2017-07-12T11:04:49.536Z,99.90
2017-07-12T11:07:17.955Z,99.90
2017-07-12T11:09:46.390Z,99.90
2017-07-12T11:12:14.806Z,99.90
2017-07-12T11:14:43.175Z,99.90
2017-07-12T11:17:11.585Z,99.90
2017-07-12T11:19:39.958Z,99.90
2017-07-12T11:22:08.617Z,99.90
2017-07-12T11:24:36.992Z,99.90
2017-07-12T11:27:05.395Z,99.90
2017-07-12T11:29:33.818Z,99.90
2017-07-12T11:32:02.191Z,99.90
2017-07-12T11:34:30.685Z,99.90
2017-07-12T11:36:59.057Z,99.90
2017-07-12T11:39:27.491Z,99.90
2017-07-12T11:41:55.906Z,99.90
2017-07-12T11:44:24.346Z,99.90
2017-07-12T11:46:53.000Z,99.90
2017-07-12T11:49:22.229Z,99.90
2017-07-12T11:51:50.618Z,99.90
2017-07-12T11:54:19.047Z,99.90
2017-07-12T11:56:47.686Z,99.90
2017-07-12T11:59:16.528Z,99.90
2017-07-12T12:01:44.910Z,99.90
2017-07-12T12:04:13.306Z,99.90
2017-07-12T12:06:41.709Z,99.90
2017-07-12T12:09:10.099Z,99.90
2017-07-12T12:11:38.609Z,99.90
2017-07-12T12:14:07.776Z,99.90
2017-07-12T12:16:36.153Z,99.90
2017-07-12T12:19:04.555Z,99.90
2017-07-12T12:21:32.939Z,99.90
2017-07-12T12:24:02.357Z,99.90
2017-07-12T12:26:31.526Z,99.90
2017-07-12T12:28:59.912Z,99.90
2017-07-12T12:31:28.326Z,99.90
2017-07-12T12:33:56.725Z,99.90
2017-07-12T12:36:25.472Z,99.90
2017-07-12T12:38:54.679Z,99.90
2017-07-12T12:41:23.058Z,99.90
2017-07-12T12:43:51.488Z,99.90
2017-07-12T12:46:19.870Z,99.90
2017-07-12T12:48:48.446Z,99.90
2017-07-12T12:51:16.853Z,99.90
2017-07-12T12:53:45.809Z,99.90
2017-07-12T12:56:14.008Z,99.90
2017-07-12T12:58:42.272Z,99.90
2017-07-12T13:01:10.876Z,99.90
2017-07-12T13:03:40.025Z,99.90
2017-07-12T13:06:08.414Z,99.90
2017-07-12T13:08:36.812Z,99.90
2017-07-12T13:11:05.183Z,99.90
2017-07-12T13:13:33.597Z,99.90
2017-07-12T13:16:02.757Z,99.90
2017-07-12T13:18:31.147Z,99.90
2017-07-12T13:20:59.537Z,99.90
2017-07-12T13:23:29.689Z,99.90
2017-07-12T13:25:58.111Z,99.90
2017-07-12T13:28:26.488Z,99.90
2017-07-12T13:30:54.879Z,99.90
2017-07-12T13:33:23.288Z,99.90
2017-07-12T13:35:51.673Z,99.90
2017-07-12T13:38:20.212Z,99.90
2017-07-12T13:40:48.579Z,99.90
2017-07-12T13:43:16.972Z,99.90
2017-07-12T13:45:45.768Z,99.90
2017-07-12T13:48:14.152Z,99.90
2017-07-12T13:50:43.294Z,99.90
2017-07-12T13:53:11.732Z,99.90
2017-07-12T13:55:40.895Z,99.90
2017-07-12T13:58:09.282Z,99.90
2017-07-12T14:00:37.676Z,99.90
2017-07-12T14:03:06.840Z,99.90
2017-07-12T14:05:35.235Z,99.90
2017-07-12T14:08:03.849Z,99.90
2017-07-12T14:10:33.004Z,99.90
2017-07-12T14:13:01.391Z,99.90
2017-07-12T14:15:29.797Z,99.90
2017-07-12T14:17:58.967Z,99.90
2017-07-12T14:20:27.350Z,99.90
2017-07-12T14:22:55.806Z,99.90
2017-07-12T14:25:24.178Z,99.90
2017-07-12T14:27:52.582Z,99.90
2017-07-12T14:30:21.190Z,99.90
2017-07-12T14:32:50.353Z,99.90
2017-07-12T14:35:18.734Z,99.90
2017-07-12T14:37:47.430Z,99.90
2017-07-12T14:40:15.804Z,99.90
2017-07-12T14:42:44.187Z,99.90
2017-07-12T14:45:12.596Z,99.90
2017-07-12T14:47:41.040Z,99.90
2017-07-12T14:50:09.637Z,99.90
2017-07-12T14:52:38.777Z,99.90
2017-07-12T14:55:07.996Z,99.90
2017-07-12T14:57:36.620Z,99.90
2017-07-12T15:00:05.779Z,99.90
2017-07-12T15:02:34.217Z,99.90
2017-07-12T15:05:02.623Z,99.90
2017-07-12T15:07:31.008Z,99.90
2017-07-12T15:09:59.380Z,99.90
2017-07-12T15:12:27.844Z,99.90
2017-07-12T15:14:56.325Z,99.90
2017-07-12T15:17:24.714Z,99.90
2017-07-12T15:19:54.103Z,99.90
2017-07-12T15:22:22.495Z,99.90
2017-07-12T15:24:50.884Z,99.90
2017-07-12T15:27:19.515Z,99.90
2017-07-12T15:29:48.671Z,99.90
2017-07-12T15:32:17.148Z,99.90
2017-07-12T15:34:45.794Z,99.90
2017-07-12T15:37:14.197Z,99.90
2017-07-12T15:39:42.617Z,99.90
2017-07-12T15:42:11.901Z,99.90
2017-07-12T15:44:40.309Z,99.90
2017-07-12T15:47:09.480Z,99.90
2017-07-12T15:49:38.091Z,99.90
2017-07-12T15:52:07.260Z,99.90
2017-07-12T15:54:35.680Z,99.90
2017-07-12T15:57:04.362Z,99.90
2017-07-12T15:59:32.732Z,99.90
2017-07-12T16:02:01.118Z,99.90
2017-07-12T16:04:29.664Z,99.90
2017-07-12T16:06:58.069Z,99.90
2017-07-12T16:09:26.457Z,99.90
2017-07-12T16:11:54.960Z,99.90
2017-07-12T16:14:23.355Z,99.90
2017-07-12T16:16:51.744Z,99.90
2017-07-12T16:19:20.254Z,99.90
2017-07-12T16:21:49.409Z,99.90
2017-07-12T16:24:17.783Z,99.90
2017-07-12T16:26:46.349Z,99.90
2017-07-12T16:29:14.805Z,99.90
2017-07-12T16:31:43.746Z,99.90
2017-07-12T16:34:12.153Z,99.90
2017-07-12T16:36:41.306Z,99.90
2017-07-12T16:39:09.959Z,99.90
2017-07-12T16:41:38.336Z,99.90
2017-07-12T16:44:06.738Z,99.90
2017-07-12T16:46:35.149Z,99.90
2017-07-12T16:49:03.522Z,99.90
2017-07-12T16:51:31.906Z,99.90
2017-07-12T16:54:00.310Z,99.90
2017-07-12T16:56:29.616Z,99.90
2017-07-12T16:58:58.010Z,99.90
2017-07-12T17:01:26.513Z,99.90
2017-07-12T17:03:54.925Z,99.90
2017-07-12T17:06:23.984Z,99.90
2017-07-12T17:08:52.402Z,99.90
2017-07-12T17:11:20.797Z,99.90
2017-07-12T17:13:49.241Z,99.90
2017-07-12T17:16:17.651Z,99.90
2017-07-12T17:18:47.256Z,99.90
2017-07-12T17:21:16.426Z,99.90
2017-07-12T17:23:44.936Z,99.90
2017-07-12T17:26:14.134Z,99.90
2017-07-12T17:28:43.319Z,99.90
2017-07-12T17:31:12.953Z,99.90
2017-07-12T17:33:42.102Z,99.90
2017-07-12T17:36:10.566Z,99.90
2017-07-12T17:38:39.209Z,99.00
2017-07-12T17:41:07.609Z,98.50
2017-07-12T17:43:36.010Z,98.20
2017-07-12T17:46:04.400Z,98.90
2017-07-12T17:48:32.783Z,98.10
2017-07-12T17:51:01.360Z,98.40
2017-07-12T17:53:29.733Z,98.40
2017-07-12T17:55:58.120Z,98.70
2017-07-12T17:58:26.615Z,98.20
2017-07-12T18:00:54.991Z,98.70
2017-07-12T18:03:23.425Z,99.00
2017-07-12T18:05:52.623Z,98.30
2017-07-12T18:08:21.013Z,98.00
2017-07-12T18:10:49.043Z,98.00
2017-07-12T18:13:18.211Z,98.60
2017-07-12T18:15:46.612Z,98.60
2017-07-12T18:18:15.771Z,98.30
2017-07-12T18:20:44.388Z,98.20
2017-07-12T18:23:12.858Z,98.20
2017-07-12T18:25:42.002Z,98.50
2017-07-12T18:28:10.479Z,98.30
2017-07-12T18:30:38.889Z,97.60
2017-07-12T18:33:07.279Z,96.30
2017-07-12T18:35:35.736Z,96.90
2017-07-12T18:38:04.146Z,97.10
2017-07-12T18:40:32.765Z,96.20
2017-07-12T18:43:01.150Z,96.70
2017-07-12T18:45:29.541Z,96.90
2017-07-12T18:47:58.391Z,96.40
2017-07-12T18:50:27.541Z,96.00
2017-07-12T18:52:55.937Z,96.00
2017-07-12T18:55:24.449Z,96.20
2017-07-12T18:57:53.675Z,96.10
2017-07-12T19:00:22.051Z,96.10
2017-07-12T19:02:50.763Z,95.50
2017-07-12T19:05:19.162Z,95.70
2017-07-12T19:07:48.462Z,95.30
2017-07-12T19:10:16.901Z,94.50
2017-07-12T19:12:45.312Z,93.60
2017-07-12T19:15:13.715Z,94.30
2017-07-12T19:17:42.953Z,94.20
2017-07-12T19:20:11.399Z,94.10
2017-07-12T19:22:40.584Z,93.90
2017-07-12T19:25:09.768Z,93.70
2017-07-12T19:27:38.157Z,93.70
2017-07-12T19:30:07.312Z,93.50
2017-07-12T19:32:35.821Z,93.50
2017-07-12T19:35:04.230Z,94.40
2017-07-12T19:37:32.624Z,93.50
2017-07-12T19:40:02.984Z,93.50
2017-07-12T19:42:31.392Z,92.10
2017-07-12T19:45:00.588Z,92.60
2017-07-12T19:47:29.007Z,92.60
2017-07-12T19:49:57.397Z,92.50
2017-07-12T19:52:25.802Z,92.80
2017-07-12T19:54:54.438Z,92.20
2017-07-12T19:57:22.865Z,92.60
2017-07-12T19:59:51.371Z,92.40
2017-07-12T20:02:20.546Z,93.20
2017-07-12T20:04:48.947Z,93.10
2017-07-12T20:07:18.090Z,92.80
2017-07-12T20:09:46.733Z,92.80
2017-07-12T20:12:15.885Z,92.80
2017-07-12T20:14:44.262Z,92.80
2017-07-12T20:17:12.997Z,93.10
2017-07-12T20:19:41.385Z,93.20
2017-07-12T20:22:09.760Z,93.80
2017-07-12T20:24:39.194Z,93.20
2017-07-12T20:27:07.587Z,93.20
2017-07-12T20:29:35.985Z,93.70
2017-07-12T20:32:04.569Z,94.30
2017-07-12T20:34:33.095Z,93.60
2017-07-12T20:37:01.537Z,93.90
2017-07-12T20:39:29.993Z,94.00
2017-07-12T20:41:58.372Z,93.60
2017-07-12T20:44:26.807Z,93.70
2017-07-12T20:46:55.270Z,94.00
2017-07-12T20:49:24.427Z,94.20
2017-07-12T20:51:52.831Z,94.20
2017-07-12T20:54:21.352Z,94.60
2017-07-12T20:56:49.752Z,95.00
2017-07-12T20:59:18.146Z,95.30
2017-07-12T21:01:46.642Z,94.90
2017-07-12T21:04:15.039Z,95.30
2017-07-12T21:06:43.435Z,94.70
2017-07-12T21:09:11.862Z,95.20
2017-07-12T21:11:40.244Z,95.70
2017-07-12T21:14:08.633Z,95.70
2017-07-12T21:16:37.240Z,96.10
2017-07-12T21:19:05.678Z,96.70
2017-07-12T21:21:36.660Z,96.90
2017-07-12T21:24:05.081Z,97.30
2017-07-12T21:26:33.481Z,97.70
2017-07-12T21:29:02.106Z,98.10
2017-07-12T21:31:30.535Z,98.60
2017-07-12T21:33:58.919Z,99.20
2017-07-12T21:36:27.373Z,99.20
2017-07-12T21:38:55.757Z,99.30
2017-07-12T21:41:24.151Z,99.40
2017-07-12T21:43:52.610Z,99.50
2017-07-12T21:46:21.009Z,99.50
2017-07-12T21:48:49.411Z,99.80
2017-07-12T21:51:18.911Z,99.90
2017-07-12T21:54:04.167Z,99.90
2017-07-12T21:56:49.330Z,99.90
2017-07-12T21:59:34.508Z,99.90
2017-07-12T22:02:19.722Z,99.90
2017-07-12T22:05:05.717Z,99.90
2017-07-12T22:07:51.088Z,99.90
2017-07-12T22:10:36.790Z,99.90
2017-07-12T22:13:22.130Z,99.90
2017-07-12T22:16:07.443Z,99.90
2017-07-12T22:18:52.828Z,99.90
2017-07-12T22:21:38.021Z,99.90
2017-07-12T22:24:23.212Z,99.90
2017-07-12T22:27:08.496Z,99.90
2017-07-12T22:29:53.789Z,99.90
2017-07-12T22:32:39.686Z,99.90
2017-07-12T22:35:24.944Z,99.90
2017-07-12T22:37:59.544Z,99.90
2017-07-12T22:40:33.454Z,99.90
2017-07-12T22:43:07.284Z,99.90
2017-07-12T22:45:36.559Z,99.90
2017-07-12T22:48:04.968Z,99.90
2017-07-12T22:50:34.107Z,99.90
2017-07-12T22:53:03.301Z,99.90
2017-07-12T22:55:31.684Z,99.90
2017-07-12T22:58:00.073Z,99.90
2017-07-12T23:00:28.618Z,99.90
2017-07-12T23:02:56.993Z,99.90
2017-07-12T23:05:25.372Z,99.90
2017-07-12T23:07:53.906Z,99.90
2017-07-12T23:10:22.289Z,99.90
2017-07-12T23:12:50.670Z,99.90
2017-07-12T23:15:19.901Z,99.90
2017-07-12T23:17:48.289Z,99.90
2017-07-12T23:20:16.677Z,99.90
2017-07-12T23:22:45.523Z,99.90
2017-07-12T23:25:14.675Z,99.90
2017-07-12T23:27:43.048Z,99.90
2017-07-12T23:30:11.573Z,99.90
2017-07-12T23:32:40.311Z,99.90
2017-07-12T23:35:08.694Z,99.90
2017-07-12T23:37:37.327Z,99.90
2017-07-12T23:40:06.510Z,99.90
2017-07-12T23:42:38.194Z,99.90
2017-07-12T23:45:07.699Z,99.90
2017-07-12T23:47:36.101Z,99.90
2017-07-12T23:50:04.489Z,99.90
2017-07-12T23:52:32.910Z,99.90
2017-07-12T23:55:01.284Z,99.90
2017-07-12T23:57:29.658Z,99.90
2017-07-12T23:59:58.198Z,99.90
